• Join FlightAware (Why Join?)
  • Login
  • US Flag 
06:10AM EDT


 

Airport Tracker/Info


-or-


 

Live Flight TrackerFlight Track Log ✈ N904PA ✈ 07-May-2013 ✈ KVNY - KBFL

Flight Track Log - Related Links

Times and Time Zones

All times are in EDT time to prevent confusion due to time zone crossing. See the N904PA flight status page for this flight to view local times or setup timezone preferences in your user account.

Time Position Orientation Groundspeed Altitude Reporting Facility
EDT Latitude Longitude Course Direction KTS MPH feet Rate Location/Type
07:43PM 34.1500 -118.5333 220° Southwest 149 171 3,900  Level Southern California TRACON
07:45PM 34.1917 -118.6014 307° West 133 153 7,300 1,320 Climbing Los Angeles Center
07:46PM 34.2347 -118.6194 341° North 160 184 8,100 360 Climbing Los Angeles Center
07:47PM 34.4085 -118.6584 345° North  Level FlightAware Approximate
07:47PM 34.2906 -118.6433 341° North 208 239 8,100  Level Los Angeles Center
07:48PM 34.3478 -118.6675 341° North 217 250 9,100 900 Climbing Los Angeles Center
07:49PM 34.4067 -118.6936 340° North 193 222 10,000 480 Climbing Los Angeles Center
07:50PM 34.4661 -118.7172 342° North 222 255 10,100  Climbing Los Angeles Center
07:51PM 34.5253 -118.7403 342° North 223 257 10,100  Level Los Angeles Center
07:52PM 34.5817 -118.7661 339° North 218 251 10,100  Level Los Angeles Center
07:53PM 34.6372 -118.7933 338° Northwest 217 250 10,100  Level Los Angeles Center
07:54PM 34.6953 -118.8167 342° North 219 252 10,100  Level Los Angeles Center
07:55PM 34.7642 -118.8469 340° North 220 253 10,100  Level Los Angeles Center
07:56PM 34.8222 -118.8633 347° North 225 259 10,100  Level Los Angeles Center
07:57PM 34.8850 -118.8628 360° North 225 259 10,100 -60 Level Los Angeles Center
07:58PM 34.9419 -118.8611 North 222 255 10,000 -900 Descending Los Angeles Center
07:59PM 35.0186 -118.8789 349° North 234 269 8,300 -1,500 Descending Los Angeles Center
08:00PM 35.0828 -118.8950 348° North 236 272 6,900 -1,380 Descending Los Angeles Center
08:02PM 35.1485 -118.9253 North  Level Estimated
08:09PM 35.4333 -119.0500 321° Northwest  Level FlightAware Approximate
08:10PM 35.4339 -119.0577 321° Northwest  Level Estimated
08:11PM 35.4333 -119.0500 321° Northwest  Level FlightAware Approximate
08:12PM 35.4339 -119.0577 321° Northwest  Level Estimated
08:13PM 35.4333 -119.0500 321° Northwest  Level FlightAware Approximate
08:14PM 35.4339 -119.0577 321° Northwest  Level Estimated